createdAt,value
2023-02-04T00:00:37.609Z,11.81
2023-02-04T00:03:06.790Z,11.92
2023-02-04T00:05:35.341Z,11.95
2023-02-04T00:08:06.489Z,11.74
2023-02-04T00:10:36.452Z,11.95
2023-02-04T00:13:05.353Z,11.95
2023-02-04T00:15:33.715Z,11.97
2023-02-04T00:18:02.081Z,12.15
2023-02-04T00:20:30.680Z,11.86
2023-02-04T00:22:59.284Z,11.98
2023-02-04T00:25:27.764Z,11.41
2023-02-04T00:27:57.475Z,11.74
2023-02-04T00:30:25.874Z,11.79
2023-02-04T00:32:55.115Z,12.01
2023-02-04T00:35:23.775Z,12.45
2023-02-04T00:37:52.657Z,12.42
2023-02-04T00:40:21.541Z,11.67
2023-02-04T00:42:49.878Z,11.78
2023-02-04T00:45:19.782Z,12.16
2023-02-04T00:47:48.162Z,12.99
2023-02-04T00:50:16.951Z,13.70
2023-02-04T00:52:45.364Z,13.42
2023-02-04T00:55:15.738Z,13.52
2023-02-04T00:57:44.164Z,12.69
2023-02-04T01:00:13.739Z,12.59
2023-02-04T01:02:43.501Z,12.73
2023-02-04T01:05:11.886Z,12.76
2023-02-04T01:07:40.262Z,13.23
2023-02-04T01:10:08.705Z,12.69
2023-02-04T01:12:37.314Z,13.11
2023-02-04T01:15:06.561Z,12.93
2023-02-04T01:17:35.022Z,12.98
2023-02-04T01:20:04.848Z,13.20
2023-02-04T01:22:33.167Z,13.31
2023-02-04T01:25:01.488Z,13.21
2023-02-04T01:27:29.880Z,13.60
2023-02-04T01:29:58.260Z,12.97
2023-02-04T01:32:26.620Z,12.80
2023-02-04T01:34:57.093Z,13.34
2023-02-04T01:37:26.803Z,13.20
2023-02-04T01:39:55.025Z,12.80
2023-02-04T01:42:23.412Z,13.06
2023-02-04T01:44:52.260Z,12.72
2023-02-04T01:47:21.248Z,12.61
2023-02-04T01:49:52.631Z,11.81
2023-02-04T01:52:21.447Z,12.02
2023-02-04T01:54:51.345Z,12.12
2023-02-04T01:57:19.867Z,12.49
2023-02-04T01:59:48.920Z,11.97
2023-02-04T02:02:42.775Z,12.53
2023-02-04T02:05:12.435Z,12.70
2023-02-04T02:07:40.829Z,12.29
2023-02-04T02:10:12.434Z,12.29
2023-02-04T02:12:40.828Z,12.14
2023-02-04T02:15:10.860Z,12.13
2023-02-04T02:17:39.784Z,12.58
2023-02-04T02:20:10.442Z,12.44
2023-02-04T02:22:40.138Z,12.07
2023-02-04T02:25:14.458Z,12.30
2023-02-04T02:27:43.179Z,11.78
2023-02-04T02:30:13.113Z,11.71
2023-02-04T02:32:41.805Z,11.68
2023-02-04T02:35:10.497Z,11.40
2023-02-04T02:37:38.871Z,11.38
2023-02-04T02:40:08.482Z,11.26
2023-02-04T02:42:38.469Z,11.49
2023-02-04T02:45:22.038Z,11.58
2023-02-04T02:47:50.900Z,11.49
2023-02-04T02:50:22.538Z,11.12
2023-02-04T02:52:50.881Z,11.38
2023-02-04T02:55:21.350Z,11.80
2023-02-04T02:57:51.885Z,10.86
2023-02-04T03:00:23.119Z,10.63
2023-02-04T03:02:56.434Z,10.52
2023-02-04T03:05:25.062Z,10.42
2023-02-04T03:07:53.629Z,10.21
2023-02-04T03:10:21.980Z,10.54
2023-02-04T03:12:51.854Z,10.19
2023-02-04T03:15:20.622Z,10.33
2023-02-04T03:17:49.298Z,10.48
2023-02-04T03:20:18.749Z,10.18
2023-02-04T03:22:47.067Z,9.80
2023-02-04T03:25:15.421Z,9.75
2023-02-04T03:27:43.811Z,9.88
2023-02-04T03:30:14.153Z,9.93
2023-02-04T03:32:42.750Z,10.02
2023-02-04T03:35:11.095Z,10.30
2023-02-04T03:37:39.454Z,10.60
2023-02-04T03:40:08.429Z,10.16
2023-02-04T03:42:36.765Z,10.17
2023-02-04T03:45:05.777Z,10.62
2023-02-04T03:47:35.516Z,10.21
2023-02-04T03:50:03.853Z,10.32
2023-02-04T03:52:32.236Z,10.50
2023-02-04T03:55:00.581Z,10.33
2023-02-04T03:57:28.937Z,10.92
2023-02-04T03:59:57.225Z,10.48
2023-02-04T04:02:25.641Z,10.84
2023-02-04T04:04:55.411Z,11.05
2023-02-04T04:07:23.810Z,10.85
2023-02-04T04:09:52.192Z,10.69
2023-02-04T04:12:20.629Z,10.62
2023-02-04T04:14:48.916Z,10.36
2023-02-04T04:17:17.698Z,10.22
2023-02-04T04:19:46.103Z,10.92
2023-02-04T04:22:15.826Z,10.86
2023-02-04T04:24:44.142Z,11.12
2023-02-04T04:27:12.492Z,11.32
2023-02-04T04:29:40.798Z,11.28
2023-02-04T04:32:09.796Z,11.38
2023-02-04T04:34:38.286Z,11.28
2023-02-04T04:37:06.788Z,11.30
2023-02-04T04:39:36.499Z,11.78
2023-02-04T04:42:05.102Z,11.32
2023-02-04T04:44:33.410Z,11.79
2023-02-04T04:47:01.856Z,11.93
2023-02-04T04:49:30.389Z,12.18
2023-02-04T04:51:58.808Z,11.99
2023-02-04T04:54:27.265Z,10.67
2023-02-04T04:56:57.090Z,10.89
2023-02-04T04:59:25.430Z,11.08
2023-02-04T05:01:53.826Z,10.30
2023-02-04T05:04:22.236Z,10.54
2023-02-04T05:06:50.645Z,10.28
2023-02-04T05:09:18.987Z,10.47
2023-02-04T05:11:47.924Z,10.50
2023-02-04T05:14:17.742Z,10.23
2023-02-04T05:16:46.061Z,10.19
2023-02-04T05:19:14.474Z,10.55
2023-02-04T05:21:42.802Z,10.67
2023-02-04T05:24:11.133Z,10.38
2023-02-04T05:26:39.429Z,11.05
2023-02-04T05:29:09.368Z,11.02
2023-02-04T05:31:40.213Z,10.82
2023-02-04T05:34:08.642Z,10.95
2023-02-04T05:36:37.028Z,10.92
2023-02-04T05:39:05.438Z,11.10
2023-02-04T05:41:33.850Z,10.90
2023-02-04T05:44:02.242Z,10.67
2023-02-04T05:46:30.676Z,10.85
2023-02-04T05:49:00.380Z,10.97
2023-02-04T05:51:28.843Z,10.81
2023-02-04T05:53:57.233Z,11.08
2023-02-04T05:56:26.400Z,11.27
2023-02-04T05:58:54.824Z,11.13
2023-02-04T06:01:23.237Z,10.79
2023-02-04T06:03:51.708Z,11.04
2023-02-04T06:06:21.498Z,11.00
2023-02-04T06:08:49.891Z,11.00
2023-02-04T06:11:18.225Z,11.02
2023-02-04T06:13:46.623Z,10.32
2023-02-04T06:16:15.096Z,10.75
2023-02-04T06:18:43.595Z,10.50
2023-02-04T06:21:11.915Z,10.22
2023-02-04T06:23:41.617Z,10.51
2023-02-04T06:26:10.102Z,10.56
2023-02-04T06:28:38.554Z,10.87
2023-02-04T06:31:09.173Z,10.58
2023-02-04T06:33:37.863Z,11.07
2023-02-04T06:36:06.433Z,10.95
2023-02-04T06:38:34.829Z,10.54
2023-02-04T06:41:04.527Z,10.98
2023-02-04T06:43:32.942Z,10.78
2023-02-04T06:46:01.387Z,10.72
2023-02-04T06:48:31.174Z,10.77
2023-02-04T06:50:59.731Z,11.10
2023-02-04T06:53:28.090Z,10.86
2023-02-04T06:55:56.453Z,10.84
2023-02-04T06:58:26.237Z,10.87
2023-02-04T07:00:54.632Z,10.71
2023-02-04T07:03:23.010Z,10.83
2023-02-04T07:05:53.127Z,10.91
2023-02-04T07:08:21.936Z,10.64
2023-02-04T07:10:50.326Z,10.84
2023-02-04T07:13:18.672Z,10.88
2023-02-04T07:15:48.491Z,11.01
2023-02-04T07:18:16.894Z,10.76
2023-02-04T07:20:45.228Z,11.23
2023-02-04T07:23:13.645Z,11.05
2023-02-04T07:25:42.110Z,11.28
2023-02-04T07:28:10.552Z,11.32
2023-02-04T07:30:39.078Z,11.03
2023-02-04T07:33:08.841Z,11.15
2023-02-04T07:35:38.039Z,11.14
2023-02-04T07:38:06.458Z,11.11
2023-02-04T07:40:35.224Z,11.13
2023-02-04T07:43:03.669Z,11.43
2023-02-04T07:45:32.076Z,11.01
2023-02-04T07:48:00.453Z,11.33
2023-02-04T07:50:30.566Z,11.37
2023-02-04T07:52:59.387Z,11.32
2023-02-04T07:55:27.829Z,11.08
2023-02-04T07:57:56.261Z,11.07
2023-02-04T08:00:25.137Z,10.68
2023-02-04T08:02:53.783Z,10.88
2023-02-04T08:05:22.164Z,10.95
2023-02-04T08:07:51.898Z,11.13
2023-02-04T08:10:21.513Z,11.26
2023-02-04T08:12:49.967Z,10.87
2023-02-04T08:15:18.368Z,10.80
2023-02-04T08:17:46.676Z,10.58
2023-02-04T08:20:15.038Z,10.47
2023-02-04T08:22:43.385Z,11.50
2023-02-04T08:25:13.681Z,10.81
2023-02-04T08:27:42.783Z,11.94
2023-02-04T08:30:12.258Z,12.00
2023-02-04T08:32:40.611Z,12.13
2023-02-04T08:35:09.694Z,11.54
2023-02-04T08:37:38.105Z,12.00
2023-02-04T08:40:07.280Z,12.18
2023-02-04T08:42:37.030Z,12.32
2023-02-04T08:45:05.816Z,12.17
2023-02-04T08:47:34.131Z,12.53
2023-02-04T08:50:02.475Z,12.53
2023-02-04T08:52:30.848Z,12.39
2023-02-04T08:54:59.112Z,12.49
2023-02-04T08:57:27.435Z,12.06
2023-02-04T08:59:57.170Z,12.20
2023-02-04T09:02:25.583Z,13.01
2023-02-04T09:04:54.040Z,12.01
2023-02-04T09:07:22.531Z,11.61
2023-02-04T09:09:50.838Z,11.97
2023-02-04T09:12:19.164Z,12.06
2023-02-04T09:14:47.513Z,11.93
2023-02-04T09:17:17.252Z,12.18
2023-02-04T09:19:45.586Z,12.12
2023-02-04T09:22:13.929Z,11.89
2023-02-04T09:24:42.379Z,10.33
2023-02-04T09:27:10.751Z,9.97
2023-02-04T09:29:39.235Z,9.68
2023-02-04T09:32:07.656Z,9.85
2023-02-04T09:34:37.393Z,9.51
2023-02-04T09:37:05.793Z,9.71
2023-02-04T09:39:34.170Z,9.99
2023-02-04T09:42:02.549Z,9.94
2023-02-04T09:44:31.105Z,10.41
2023-02-04T09:47:01.247Z,10.68
2023-02-04T09:49:29.914Z,10.74
2023-02-04T09:51:59.686Z,10.57
2023-02-04T09:54:28.073Z,11.70
2023-02-04T09:56:57.519Z,11.55
2023-02-04T09:59:28.678Z,11.80
2023-02-04T10:01:59.411Z,11.32
2023-02-04T10:04:28.043Z,10.95
2023-02-04T10:06:58.655Z,12.20
2023-02-04T10:09:28.221Z,11.50
2023-02-04T10:11:56.611Z,11.58
2023-02-04T10:14:25.181Z,12.72
2023-02-04T10:16:58.507Z,12.64
2023-02-04T10:19:28.475Z,13.18
2023-02-04T10:21:57.105Z,12.68
2023-02-04T10:24:28.329Z,13.06
2023-02-04T10:27:08.178Z,13.52
2023-02-04T10:29:36.492Z,13.20
2023-02-04T10:32:05.138Z,13.17
2023-02-04T10:34:37.874Z,12.65
2023-02-04T10:37:15.687Z,13.32
2023-02-04T10:39:45.553Z,13.15
2023-02-04T10:42:22.038Z,12.54
2023-02-04T10:44:50.502Z,12.56
2023-02-04T10:47:20.969Z,12.34
2023-02-04T10:49:56.645Z,12.82
2023-02-04T10:52:27.961Z,12.54
2023-02-04T10:54:58.323Z,12.96
2023-02-04T10:57:28.610Z,13.67
2023-02-04T10:59:59.471Z,12.59
2023-02-04T11:02:43.434Z,13.20
2023-02-04T11:05:15.718Z,12.40
2023-02-04T11:07:44.198Z,12.13
2023-02-04T11:10:16.913Z,11.98
2023-02-04T11:12:47.671Z,12.58
2023-02-04T11:15:38.937Z,12.45
2023-02-04T11:18:08.999Z,12.73
2023-02-04T11:20:39.919Z,13.00
2023-02-04T11:23:29.881Z,13.10
2023-02-04T11:26:07.649Z,12.85
2023-02-04T11:28:57.522Z,12.82
2023-02-04T11:31:43.974Z,13.24
2023-02-04T11:34:26.689Z,13.82
2023-02-04T11:37:12.259Z,13.94
2023-02-04T11:39:42.410Z,13.80
2023-02-04T11:42:34.206Z,13.93
2023-02-04T11:45:04.351Z,13.96
2023-02-04T11:47:36.915Z,14.71
2023-02-04T11:50:13.334Z,15.29
2023-02-04T11:52:42.380Z,14.20
2023-02-04T11:55:12.123Z,14.60
2023-02-04T11:57:42.609Z,14.41
2023-02-04T12:00:15.606Z,14.79
2023-02-04T12:02:46.418Z,15.16
2023-02-04T12:05:16.152Z,14.47
2023-02-04T12:07:45.125Z,14.74
2023-02-04T12:10:15.768Z,13.96
2023-02-04T12:12:46.170Z,14.61
2023-02-04T12:15:19.054Z,14.64
2023-02-04T12:17:47.864Z,14.58
2023-02-04T12:20:16.422Z,14.14
2023-02-04T12:22:44.852Z,14.30
2023-02-04T12:25:16.833Z,14.62
2023-02-04T12:27:46.703Z,14.89
2023-02-04T12:30:15.459Z,14.25
2023-02-04T12:32:43.819Z,14.63
2023-02-04T12:35:12.229Z,14.16
2023-02-04T12:37:40.550Z,13.51
2023-02-04T12:40:09.962Z,13.68
2023-02-04T12:42:38.297Z,14.41
2023-02-04T12:45:08.877Z,14.40
2023-02-04T12:47:36.997Z,13.99
2023-02-04T12:50:05.699Z,14.52
2023-02-04T12:52:34.244Z,14.31
2023-02-04T12:55:04.789Z,14.71
2023-02-04T12:57:33.267Z,14.25
2023-02-04T13:00:01.812Z,14.13
2023-02-04T13:02:31.559Z,13.98
2023-02-04T13:04:59.990Z,14.47
2023-02-04T13:07:28.330Z,14.22
2023-02-04T13:09:57.437Z,14.54
2023-02-04T13:12:25.914Z,14.71
2023-02-04T13:14:54.283Z,15.01
2023-02-04T13:17:22.761Z,14.94
2023-02-04T13:19:52.494Z,15.74
2023-02-04T13:22:21.226Z,16.01
2023-02-04T13:24:49.643Z,14.79
2023-02-04T13:27:18.045Z,14.35
2023-02-04T13:29:46.369Z,13.68
2023-02-04T13:32:14.732Z,13.59
2023-02-04T13:34:43.299Z,13.48
2023-02-04T13:37:13.000Z,13.44
2023-02-04T13:39:41.337Z,13.39
2023-02-04T13:42:09.708Z,13.11
2023-02-04T13:44:38.052Z,13.03
2023-02-04T13:47:06.510Z,12.98
2023-02-04T13:49:34.849Z,13.13
2023-02-04T13:52:03.212Z,13.06
2023-02-04T13:54:32.994Z,13.24
2023-02-04T13:57:01.383Z,12.92
2023-02-04T13:59:29.734Z,13.29
2023-02-04T14:01:58.052Z,12.57
2023-02-04T14:04:27.174Z,12.13
2023-02-04T14:06:56.418Z,12.49
2023-02-04T14:09:25.478Z,13.25
2023-02-04T14:11:55.177Z,13.14
2023-02-04T14:14:23.512Z,13.15
2023-02-04T14:16:52.049Z,13.43
2023-02-04T14:19:20.395Z,13.09
2023-02-04T14:21:50.257Z,13.16
2023-02-04T14:24:18.618Z,13.21
2023-02-04T14:26:46.964Z,13.04
2023-02-04T14:29:16.743Z,13.42
2023-02-04T14:31:45.104Z,12.81
2023-02-04T14:34:13.550Z,12.75
2023-02-04T14:36:41.989Z,13.13
2023-02-04T14:39:10.315Z,13.34
2023-02-04T14:41:38.677Z,13.82
2023-02-04T14:44:07.061Z,13.66
2023-02-04T14:46:36.892Z,13.71
2023-02-04T14:49:05.227Z,12.94
2023-02-04T14:51:33.562Z,13.04
2023-02-04T14:54:02.777Z,13.00
2023-02-04T14:56:31.137Z,12.26
2023-02-04T14:58:59.455Z,12.28
2023-02-04T15:01:27.996Z,12.85
2023-02-04T15:03:58.317Z,12.82
2023-02-04T15:06:26.910Z,12.97
2023-02-04T15:08:55.539Z,12.96
2023-02-04T15:11:23.937Z,13.03
2023-02-04T15:13:52.242Z,12.52
2023-02-04T15:16:20.607Z,12.33
2023-02-04T15:18:49.117Z,12.09
2023-02-04T15:21:18.885Z,11.89
2023-02-04T15:23:47.683Z,12.07
2023-02-04T15:26:16.438Z,11.79
2023-02-04T15:28:44.782Z,11.64
2023-02-04T15:31:13.353Z,12.03
2023-02-04T15:33:41.778Z,12.13
2023-02-04T15:36:10.346Z,12.01
2023-02-04T15:38:40.048Z,12.00
2023-02-04T15:41:08.419Z,11.74
2023-02-04T15:43:36.764Z,12.18
2023-02-04T15:46:05.381Z,12.14
2023-02-04T15:48:33.729Z,12.17
2023-02-04T15:51:02.037Z,12.19
2023-02-04T15:53:30.507Z,12.12
2023-02-04T15:56:00.211Z,11.83
2023-02-04T15:58:28.570Z,11.30
2023-02-04T16:00:57.466Z,11.84
2023-02-04T16:03:26.691Z,11.97
2023-02-04T16:05:55.609Z,11.34
2023-02-04T16:08:23.998Z,11.28
2023-02-04T16:10:54.079Z,11.52
2023-02-04T16:13:23.895Z,11.16
2023-02-04T16:15:52.224Z,11.27
2023-02-04T16:18:20.710Z,11.56
2023-02-04T16:20:49.094Z,11.31
2023-02-04T16:23:17.460Z,10.98
2023-02-04T16:25:45.823Z,11.58
2023-02-04T16:28:14.220Z,11.99
2023-02-04T16:30:44.044Z,12.12
2023-02-04T16:33:12.436Z,12.26
2023-02-04T16:35:59.846Z,12.40
2023-02-04T16:38:28.621Z,12.19
2023-02-04T16:40:57.003Z,12.37
2023-02-04T16:43:25.654Z,11.88
2023-02-04T16:45:55.809Z,12.17
2023-02-04T16:48:24.223Z,12.18
2023-02-04T16:50:52.587Z,12.23
2023-02-04T16:53:20.952Z,12.33
2023-02-04T16:55:49.382Z,12.39
2023-02-04T16:58:18.779Z,12.35
2023-02-04T17:00:47.169Z,12.35
2023-02-04T17:03:17.230Z,12.37
2023-02-04T17:05:45.669Z,12.45
2023-02-04T17:08:15.162Z,12.47
2023-02-04T17:11:00.444Z,12.07
2023-02-04T17:13:28.929Z,12.18
2023-02-04T17:16:01.055Z,12.40
2023-02-04T17:18:32.153Z,12.39
2023-02-04T17:21:01.145Z,12.46
2023-02-04T17:23:29.786Z,12.12
2023-02-04T17:25:58.177Z,12.45
2023-02-04T17:28:26.634Z,12.38
2023-02-04T17:30:55.018Z,12.17
2023-02-04T17:33:23.435Z,11.82
2023-02-04T17:35:53.184Z,11.67
2023-02-04T17:38:22.004Z,11.65
2023-02-04T17:40:50.622Z,11.48
2023-02-04T17:43:19.171Z,11.50
2023-02-04T17:45:47.550Z,11.53
2023-02-04T17:48:16.204Z,11.63
2023-02-04T17:50:44.639Z,11.63
2023-02-04T17:53:14.373Z,11.49
2023-02-04T17:55:42.749Z,11.56
2023-02-04T17:58:15.862Z,11.34
2023-02-04T18:00:45.940Z,11.78
2023-02-04T18:03:15.637Z,11.85
2023-02-04T18:05:46.801Z,11.83
2023-02-04T18:08:18.175Z,11.68
2023-02-04T18:10:47.689Z,11.53
2023-02-04T18:13:17.714Z,11.45
2023-02-04T18:15:47.890Z,11.02
2023-02-04T18:18:20.842Z,11.59
2023-02-04T18:20:55.093Z,11.69
2023-02-04T18:23:24.922Z,11.69
2023-02-04T18:25:53.236Z,11.56
2023-02-04T18:28:22.875Z,11.39
2023-02-04T18:30:53.109Z,11.47
2023-02-04T18:33:23.994Z,11.27
2023-02-04T18:35:53.734Z,11.04
2023-02-04T18:38:25.923Z,10.64
2023-02-04T18:41:00.767Z,10.85
2023-02-04T18:43:30.661Z,10.29
2023-02-04T18:46:02.415Z,10.40
2023-02-04T18:48:54.748Z,10.20
2023-02-04T18:51:27.393Z,9.92
2023-02-04T18:54:00.647Z,9.65
2023-02-04T18:56:35.142Z,9.21
2023-02-04T18:59:03.798Z,9.84
2023-02-04T19:01:35.575Z,10.03
2023-02-04T19:04:07.067Z,10.10
2023-02-04T19:06:39.909Z,10.06
2023-02-04T19:09:17.663Z,9.11
2023-02-04T19:11:48.247Z,9.48
2023-02-04T19:14:18.877Z,9.71
2023-02-04T19:16:48.054Z,9.92
2023-02-04T19:19:44.829Z,10.04
2023-02-04T19:22:19.682Z,10.07
2023-02-04T19:24:52.113Z,9.81
2023-02-04T19:27:32.925Z,9.97
2023-02-04T19:30:02.367Z,10.02
2023-02-04T19:32:33.993Z,9.94
2023-02-04T19:35:16.305Z,9.90
2023-02-04T19:37:45.923Z,9.91
2023-02-04T19:40:26.866Z,9.87
2023-02-04T19:42:56.212Z,9.75
2023-02-04T19:45:26.434Z,9.67
2023-02-04T19:47:56.162Z,9.75
2023-02-04T19:50:27.289Z,9.68
2023-02-04T19:53:01.676Z,9.72
2023-02-04T19:55:36.884Z,9.70
2023-02-04T19:58:16.694Z,9.68
2023-02-04T20:01:01.657Z,9.54
2023-02-04T20:03:35.841Z,9.54
2023-02-04T20:06:27.593Z,9.47
2023-02-04T20:08:56.826Z,9.41
2023-02-04T20:12:00.016Z,9.40
2023-02-04T20:14:49.326Z,9.34
2023-02-04T20:17:37.415Z,9.38
2023-02-04T20:20:20.811Z,9.30
2023-02-04T20:22:51.278Z,9.15
2023-02-04T20:25:45.089Z,9.09
2023-02-04T20:28:37.307Z,8.95
2023-02-04T20:31:18.791Z,9.04
2023-02-04T20:33:49.814Z,8.52
2023-02-04T20:36:36.169Z,8.40
2023-02-04T20:39:30.881Z,8.15
2023-02-04T20:42:36.715Z,7.88
2023-02-04T20:45:33.979Z,7.74
2023-02-04T20:48:27.062Z,7.77
2023-02-04T20:50:56.629Z,7.77
2023-02-04T20:53:26.879Z,7.68
2023-02-04T20:56:03.704Z,7.96
2023-02-04T20:58:35.868Z,7.90
2023-02-04T21:01:18.711Z,7.92
2023-02-04T21:03:47.047Z,8.44
2023-02-04T21:06:23.015Z,8.59
2023-02-04T21:08:52.866Z,8.75
2023-02-04T21:11:22.898Z,8.73
2023-02-04T21:13:52.313Z,8.83
2023-02-04T21:16:22.276Z,8.99
2023-02-04T21:18:50.824Z,9.06
2023-02-04T21:21:20.369Z,8.63
2023-02-04T21:23:48.757Z,8.91
2023-02-04T21:26:17.060Z,8.98
2023-02-04T21:28:45.597Z,9.11
2023-02-04T21:31:14.058Z,9.24
2023-02-04T21:33:43.965Z,9.30
2023-02-04T21:36:12.286Z,9.22
2023-02-04T21:38:40.783Z,9.20
2023-02-04T21:41:09.202Z,9.29
2023-02-04T21:43:37.525Z,9.28
2023-02-04T21:46:06.234Z,9.21
2023-02-04T21:48:34.575Z,9.43
2023-02-04T21:51:04.467Z,9.53
2023-02-04T21:53:32.867Z,9.54
2023-02-04T21:56:01.239Z,9.63
2023-02-04T21:58:29.656Z,9.63
2023-02-04T22:00:58.075Z,9.63
2023-02-04T22:03:26.600Z,9.60
2023-02-04T22:05:54.963Z,9.55
2023-02-04T22:08:24.713Z,9.27
2023-02-04T22:10:53.067Z,8.79
2023-02-04T22:13:21.368Z,8.82
2023-02-04T22:15:49.726Z,8.82
2023-02-04T22:18:18.091Z,9.14
2023-02-04T22:20:46.439Z,9.21
2023-02-04T22:23:16.608Z,9.17
2023-02-04T22:25:46.332Z,9.07
2023-02-04T22:28:14.753Z,8.77
2023-02-04T22:30:43.148Z,8.88
2023-02-04T22:33:14.078Z,8.80
2023-02-04T22:35:42.469Z,9.00
2023-02-04T22:38:10.807Z,9.11
2023-02-04T22:40:39.185Z,9.06
2023-02-04T22:43:08.868Z,9.09
2023-02-04T22:45:37.202Z,8.67
2023-02-04T22:48:05.593Z,8.29
2023-02-04T22:50:34.104Z,8.13
2023-02-04T22:53:02.402Z,8.29
2023-02-04T22:55:30.771Z,7.89
2023-02-04T22:57:59.154Z,8.10
2023-02-04T23:00:28.908Z,8.75
2023-02-04T23:02:57.252Z,8.85
2023-02-04T23:05:25.659Z,8.55
2023-02-04T23:07:53.952Z,8.61
2023-02-04T23:10:22.352Z,8.79
2023-02-04T23:12:50.662Z,8.82
2023-02-04T23:15:19.330Z,8.75
2023-02-04T23:17:49.064Z,8.52
2023-02-04T23:20:17.902Z,7.91
2023-02-04T23:22:46.209Z,8.04
2023-02-04T23:25:14.540Z,8.20
2023-02-04T23:27:42.964Z,7.55
2023-02-04T23:30:12.409Z,7.19
2023-02-04T23:32:40.720Z,7.92
2023-02-04T23:35:10.528Z,8.13
2023-02-04T23:37:38.853Z,7.78
2023-02-04T23:40:08.008Z,7.56
2023-02-04T23:42:36.377Z,7.67
2023-02-04T23:45:05.146Z,7.55
2023-02-04T23:47:33.600Z,7.60
2023-02-04T23:50:01.924Z,7.97
2023-02-04T23:52:31.633Z,7.77
2023-02-04T23:55:01.321Z,7.64
2023-02-04T23:57:30.554Z,7.21
2023-02-04T23:59:58.861Z,7.50
